createdAt,value
2022-09-27T00:00:45.990Z,100062.99
2022-09-27T00:02:07.978Z,100063.00
2022-09-27T00:03:11.357Z,100059.33
2022-09-27T00:04:13.268Z,100059.50
2022-09-27T00:05:15.934Z,100057.60
2022-09-27T00:06:29.595Z,100056.52
2022-09-27T00:07:31.472Z,100057.70
2022-09-27T00:08:35.139Z,100055.05
2022-09-27T00:09:36.927Z,100056.73
2022-09-27T00:10:38.800Z,100053.75
2022-09-27T00:11:42.144Z,100054.95
2022-09-27T00:12:44.550Z,100053.61
2022-09-27T00:13:46.196Z,100055.06
2022-09-27T00:14:47.946Z,100052.64
2022-09-27T00:15:56.101Z,100051.89
2022-09-27T00:16:57.967Z,100049.77
2022-09-27T00:17:59.725Z,100049.92
2022-09-27T00:19:06.129Z,100045.56
2022-09-27T00:20:08.898Z,100048.79
2022-09-27T00:21:13.129Z,100045.75
2022-09-27T00:22:14.819Z,100043.72
2022-09-27T00:23:16.504Z,100048.59
2022-09-27T00:24:20.860Z,100046.00
2022-09-27T00:25:22.473Z,100045.02
2022-09-27T00:26:25.185Z,100045.46
2022-09-27T00:27:27.292Z,100042.83
2022-09-27T00:28:30.408Z,100045.14
2022-09-27T00:29:32.244Z,100044.55
2022-09-27T00:30:34.356Z,100043.85
2022-09-27T00:31:37.184Z,100045.25
2022-09-27T00:32:39.457Z,100043.48
2022-09-27T00:33:41.372Z,100042.36
2022-09-27T00:34:43.387Z,100040.33
2022-09-27T00:35:45.887Z,100039.40
2022-09-27T00:36:48.572Z,100036.80
2022-09-27T00:37:50.316Z,100037.39
2022-09-27T00:38:52.707Z,100037.88
2022-09-27T00:39:54.473Z,100039.77
2022-09-27T00:40:56.338Z,100036.80
2022-09-27T00:41:58.110Z,100037.17
2022-09-27T00:42:59.835Z,100035.42
2022-09-27T00:44:37.232Z,100034.64
2022-09-27T00:45:39.003Z,100035.02
2022-09-27T00:46:47.430Z,100035.34
2022-09-27T00:48:04.982Z,100037.27
2022-09-27T00:49:18.509Z,100033.20
2022-09-27T00:50:29.276Z,100033.55
2022-09-27T00:51:34.326Z,100033.27
2022-09-27T00:52:48.151Z,100031.04
2022-09-27T00:53:52.939Z,100028.33
2022-09-27T00:55:06.539Z,100024.38
2022-09-27T00:56:16.025Z,100023.90
2022-09-27T00:57:20.218Z,100021.33
2022-09-27T00:58:29.615Z,100022.75
2022-09-27T00:59:40.603Z,100023.98
2022-09-27T01:00:47.800Z,100021.59
2022-09-27T01:01:50.431Z,100024.36
2022-09-27T01:02:54.261Z,100025.37
2022-09-27T01:04:14.239Z,100023.58
2022-09-27T01:05:20.137Z,100023.48
2022-09-27T01:06:22.039Z,100017.75
2022-09-27T01:07:23.735Z,100020.19
2022-09-27T01:08:25.447Z,100019.29
2022-09-27T01:09:28.448Z,100017.91
2022-09-27T01:10:40.443Z,100018.77
2022-09-27T01:11:49.871Z,100016.57
2022-09-27T01:13:06.716Z,100018.17
2022-09-27T01:14:29.390Z,100016.08
2022-09-27T01:15:31.090Z,100015.05
2022-09-27T01:16:54.546Z,100017.11
2022-09-27T01:18:20.787Z,100010.90
2022-09-27T01:19:47.321Z,100012.56
2022-09-27T01:21:01.842Z,100012.16
2022-09-27T01:22:14.054Z,100011.52
2022-09-27T01:24:00.887Z,100012.14
2022-09-27T01:25:08.404Z,100011.02
2022-09-27T01:26:29.031Z,100003.77
2022-09-27T01:27:49.686Z,100002.89
2022-09-27T01:29:06.689Z,100002.45
2022-09-27T01:30:21.214Z,100002.55
2022-09-27T01:33:10.559Z,99999.91
2022-09-27T01:34:30.050Z,99999.56
2022-09-27T01:36:00.236Z,99997.96
2022-09-27T01:37:20.134Z,99993.36
2022-09-27T01:38:55.711Z,99991.39
2022-09-27T01:40:36.690Z,99991.58
2022-09-27T01:42:22.343Z,99986.88
2022-09-27T01:43:58.615Z,99987.46
2022-09-27T01:45:11.033Z,99986.79
2022-09-27T01:46:27.383Z,99987.40
2022-09-27T01:47:54.302Z,99987.23
2022-09-27T01:49:26.920Z,99987.33
2022-09-27T01:50:35.046Z,99986.73
2022-09-27T01:51:47.864Z,99984.60
2022-09-27T01:53:03.174Z,99983.54
2022-09-27T01:54:10.205Z,99988.10
2022-09-27T01:55:34.966Z,99986.45
2022-09-27T01:57:12.984Z,99989.07
2022-09-27T01:58:23.842Z,99984.23
2022-09-27T01:59:32.225Z,99984.23
2022-09-27T02:00:48.257Z,99985.63
2022-09-27T02:01:51.764Z,99982.20
2022-09-27T02:03:20.738Z,99985.70
2022-09-27T02:04:57.068Z,99985.14
2022-09-27T02:06:03.669Z,99988.05
2022-09-27T02:07:31.753Z,99986.97
2022-09-27T02:08:33.642Z,99989.77
2022-09-27T02:09:47.926Z,99989.14
2022-09-27T02:10:57.884Z,99986.67
2022-09-27T02:12:10.818Z,99988.29
2022-09-27T02:13:24.462Z,99988.13
2022-09-27T02:14:53.567Z,99985.09
2022-09-27T02:16:08.045Z,99984.34
2022-09-27T02:17:22.839Z,99984.84
2022-09-27T02:18:51.209Z,99983.02
2022-09-27T02:19:57.132Z,99981.93
2022-09-27T02:21:06.934Z,99981.66
2022-09-27T02:22:20.995Z,99982.00
2022-09-27T02:23:27.281Z,99985.64
2022-09-27T02:24:49.595Z,99982.81
2022-09-27T02:26:20.574Z,99984.95
2022-09-27T02:27:35.520Z,99982.30
2022-09-27T02:28:49.450Z,99978.19
2022-09-27T02:30:05.486Z,99977.92
2022-09-27T02:31:09.446Z,99976.43
2022-09-27T02:32:12.536Z,99974.06
2022-09-27T02:33:15.819Z,99970.30
2022-09-27T02:34:28.787Z,99968.58
2022-09-27T02:35:35.156Z,99961.82
2022-09-27T02:36:37.910Z,99963.04
2022-09-27T02:37:39.847Z,99963.27
2022-09-27T02:38:43.055Z,99963.16
2022-09-27T02:39:45.671Z,99962.56
2022-09-27T02:40:47.450Z,99961.59
2022-09-27T02:41:49.473Z,99960.70
2022-09-27T02:42:52.397Z,99961.35
2022-09-27T02:44:01.917Z,99962.23
2022-09-27T02:45:06.198Z,99960.80
2022-09-27T02:46:13.877Z,99964.67
2022-09-27T02:47:15.571Z,99963.78
2022-09-27T02:48:36.017Z,99963.92
2022-09-27T02:50:10.091Z,99962.67
2022-09-27T02:51:45.632Z,99958.59
2022-09-27T02:53:08.813Z,99957.64
2022-09-27T02:54:34.769Z,99959.14
2022-09-27T02:55:51.160Z,99955.68
2022-09-27T02:57:42.382Z,99958.16
2022-09-27T02:59:11.454Z,99955.50
2022-09-27T03:01:29.027Z,99957.59
2022-09-27T03:02:58.122Z,99954.39
2022-09-27T03:04:14.230Z,99954.55
2022-09-27T03:05:29.571Z,99952.92
2022-09-27T03:06:33.505Z,99953.46
2022-09-27T03:07:37.809Z,99953.11
2022-09-27T03:08:41.291Z,99952.89
2022-09-27T03:09:47.399Z,99953.17
2022-09-27T03:10:49.792Z,99952.44
2022-09-27T03:11:52.621Z,99954.09
2022-09-27T03:12:56.159Z,99949.34
2022-09-27T03:14:13.656Z,99953.67
2022-09-27T03:15:21.575Z,99951.16
2022-09-27T03:16:49.470Z,99953.07
2022-09-27T03:18:17.178Z,99952.18
2022-09-27T03:19:37.882Z,99949.73
2022-09-27T03:21:05.880Z,99946.78
2022-09-27T03:22:08.581Z,99945.02
2022-09-27T03:23:10.319Z,99940.81
2022-09-27T03:24:12.013Z,99943.27
2022-09-27T03:25:13.894Z,99942.30
2022-09-27T03:26:15.770Z,99943.33
2022-09-27T03:27:17.881Z,99942.21
2022-09-27T03:28:19.777Z,99937.20
2022-09-27T03:29:22.082Z,99940.55
2022-09-27T03:30:27.389Z,99939.64
2022-09-27T03:31:29.873Z,99936.11
2022-09-27T03:32:50.069Z,99939.36
2022-09-27T03:34:10.302Z,99939.41
2022-09-27T03:35:12.634Z,99940.95
2022-09-27T03:36:14.447Z,99938.22
2022-09-27T03:37:16.273Z,99936.08
2022-09-27T03:38:18.219Z,99933.95
2022-09-27T03:39:20.284Z,99936.41
2022-09-27T03:40:21.944Z,99935.33
2022-09-27T03:41:24.155Z,99933.73
2022-09-27T03:42:26.936Z,99932.86
2022-09-27T03:43:28.683Z,99930.44
2022-09-27T03:44:32.789Z,99931.73
2022-09-27T03:45:34.604Z,99930.15
2022-09-27T03:46:39.915Z,99928.09
2022-09-27T03:47:41.961Z,99926.53
2022-09-27T03:48:43.569Z,99928.55
2022-09-27T03:49:45.321Z,99924.48
2022-09-27T03:50:46.956Z,99921.39
2022-09-27T03:51:48.744Z,99918.50
2022-09-27T03:52:50.504Z,99916.77
2022-09-27T03:53:52.208Z,99915.30
2022-09-27T03:54:56.353Z,99914.48
2022-09-27T03:56:01.798Z,99914.59
2022-09-27T03:57:05.090Z,99911.87
2022-09-27T03:58:07.507Z,99913.59
2022-09-27T03:59:14.096Z,99912.94
2022-09-27T04:00:40.450Z,99909.67
2022-09-27T04:01:44.018Z,99909.20
2022-09-27T04:02:50.238Z,99910.84
2022-09-27T04:03:57.637Z,99907.52
2022-09-27T04:05:07.520Z,99908.90
2022-09-27T04:06:09.566Z,99906.16
2022-09-27T04:07:17.283Z,99910.19
2022-09-27T04:08:21.058Z,99906.44
2022-09-27T04:09:22.907Z,99906.86
2022-09-27T04:10:34.246Z,99902.36
2022-09-27T04:11:36.005Z,99906.33
2022-09-27T04:12:40.104Z,99903.80
2022-09-27T04:13:43.829Z,99905.31
2022-09-27T04:14:45.816Z,99904.38
2022-09-27T04:16:07.792Z,99906.30
2022-09-27T04:17:26.919Z,99901.84
2022-09-27T04:18:46.273Z,99902.20
2022-09-27T04:20:18.181Z,99902.27
2022-09-27T04:21:20.083Z,99904.44
2022-09-27T04:22:25.273Z,99907.73
2022-09-27T04:23:29.986Z,99909.80
2022-09-27T04:24:37.262Z,99915.31
2022-09-27T04:26:08.039Z,99917.08
2022-09-27T04:27:29.179Z,99914.10
2022-09-27T04:28:31.693Z,99910.77
2022-09-27T04:29:33.493Z,99913.64
2022-09-27T04:30:38.912Z,99918.55
2022-09-27T04:31:41.093Z,99918.30
2022-09-27T04:32:57.476Z,99921.30
2022-09-27T04:34:46.814Z,99918.90
2022-09-27T04:36:09.126Z,99916.73
2022-09-27T04:37:13.872Z,99910.61
2022-09-27T04:38:22.704Z,99905.20
2022-09-27T04:39:24.548Z,99906.48
2022-09-27T04:40:26.474Z,99906.50
2022-09-27T04:41:29.035Z,99907.08
2022-09-27T04:42:30.997Z,99908.52
2022-09-27T04:43:32.667Z,99908.83
2022-09-27T04:44:34.336Z,99907.31
2022-09-27T04:45:36.136Z,99903.81
2022-09-27T04:46:38.325Z,99897.66
2022-09-27T04:47:44.115Z,99896.52
2022-09-27T04:48:47.165Z,99896.55
2022-09-27T04:49:49.249Z,99897.56
2022-09-27T04:51:04.555Z,99900.27
2022-09-27T04:52:06.367Z,99902.54
2022-09-27T04:53:15.100Z,99904.73
2022-09-27T04:54:16.857Z,99898.58
2022-09-27T04:55:28.729Z,99898.48
2022-09-27T04:56:30.430Z,99901.16
2022-09-27T04:57:32.530Z,99899.52
2022-09-27T04:58:34.607Z,99898.23
2022-09-27T04:59:36.419Z,99897.50
2022-09-27T05:00:38.124Z,99897.71
2022-09-27T05:02:00.019Z,99902.60
2022-09-27T05:03:14.435Z,99899.49
2022-09-27T05:04:31.242Z,99902.44
2022-09-27T05:05:32.935Z,99900.27
2022-09-27T05:06:34.873Z,99898.81
2022-09-27T05:07:41.831Z,99902.98
2022-09-27T05:08:48.056Z,99899.96
2022-09-27T05:09:52.816Z,99899.12
2022-09-27T05:10:54.732Z,99902.21
2022-09-27T05:11:56.458Z,99899.89
2022-09-27T05:13:07.257Z,99898.14
2022-09-27T05:14:09.278Z,99899.52
2022-09-27T05:15:19.265Z,99903.92
2022-09-27T05:16:39.454Z,99904.06
2022-09-27T05:17:59.509Z,99905.92
2022-09-27T05:19:20.297Z,99900.59
2022-09-27T05:20:31.153Z,99900.90
2022-09-27T05:21:45.836Z,99901.84
2022-09-27T05:22:47.960Z,99895.00
2022-09-27T05:23:49.989Z,99899.77
2022-09-27T05:24:52.147Z,99897.97
2022-09-27T05:25:55.850Z,99898.33
2022-09-27T05:26:57.612Z,99897.97
2022-09-27T05:27:59.653Z,99896.89
2022-09-27T05:29:02.145Z,99900.57
2022-09-27T05:30:07.762Z,99902.82
2022-09-27T05:31:16.360Z,99896.09
2022-09-27T05:32:19.469Z,99898.52
2022-09-27T05:33:34.016Z,99897.96
2022-09-27T05:35:14.751Z,99896.04
2022-09-27T05:36:16.745Z,99898.16
2022-09-27T05:37:18.708Z,99898.98
2022-09-27T05:38:21.124Z,99904.78
2022-09-27T05:39:25.765Z,99900.89
2022-09-27T05:40:46.887Z,99899.73
2022-09-27T05:41:57.614Z,99898.01
2022-09-27T05:42:59.318Z,99895.77
2022-09-27T05:44:02.067Z,99895.69
2022-09-27T05:45:06.573Z,99894.36
2022-09-27T05:46:10.734Z,99892.45
2022-09-27T05:47:18.526Z,99892.29
2022-09-27T05:48:23.115Z,99892.13
2022-09-27T05:49:36.990Z,99888.49
2022-09-27T05:50:40.061Z,99894.49
2022-09-27T05:51:43.106Z,99891.00
2022-09-27T05:52:48.508Z,99891.11
2022-09-27T05:53:51.039Z,99895.02
2022-09-27T05:54:58.840Z,99894.44
2022-09-27T05:56:02.728Z,99895.79
2022-09-27T05:57:09.800Z,99894.64
2022-09-27T05:58:19.234Z,99893.08
2022-09-27T05:59:29.354Z,99892.05
2022-09-27T06:01:07.358Z,99887.55
2022-09-27T06:02:26.599Z,99887.36
2022-09-27T06:03:47.110Z,99892.95
2022-09-27T06:05:07.462Z,99889.65
2022-09-27T06:06:15.364Z,99886.20
2022-09-27T06:07:21.469Z,99885.92
2022-09-27T06:08:23.520Z,99885.17
2022-09-27T06:09:27.683Z,99885.48
2022-09-27T06:10:31.745Z,99887.67
2022-09-27T06:11:34.365Z,99889.66
2022-09-27T06:12:36.452Z,99889.00
2022-09-27T06:13:41.955Z,99889.67
2022-09-27T06:14:45.367Z,99889.23
2022-09-27T06:15:52.394Z,99894.10
2022-09-27T06:16:54.438Z,99893.67
2022-09-27T06:18:07.238Z,99892.66
2022-09-27T06:19:10.138Z,99893.25
2022-09-27T06:20:12.529Z,99894.19
2022-09-27T06:21:15.054Z,99895.54
2022-09-27T06:22:23.291Z,99895.18
2022-09-27T06:23:32.467Z,99890.91
2022-09-27T06:24:37.117Z,99891.23
2022-09-27T06:26:08.256Z,99891.66
2022-09-27T06:27:38.777Z,99894.69
2022-09-27T06:28:54.194Z,99892.89
2022-09-27T06:30:03.072Z,99895.13
2022-09-27T06:31:40.560Z,99894.20
2022-09-27T06:33:00.547Z,99891.16
2022-09-27T06:34:08.395Z,99897.52
2022-09-27T06:35:10.270Z,99891.84
2022-09-27T06:36:12.530Z,99894.71
2022-09-27T06:37:15.753Z,99890.12
2022-09-27T06:38:17.764Z,99888.80
2022-09-27T06:39:27.931Z,99890.23
2022-09-27T06:40:39.315Z,99892.61
2022-09-27T06:41:59.121Z,99892.07
2022-09-27T06:43:20.854Z,99891.36
2022-09-27T06:44:50.267Z,99891.35
2022-09-27T06:46:07.761Z,99898.11
2022-09-27T06:47:23.115Z,99893.30
2022-09-27T06:48:38.655Z,99893.38
2022-09-27T06:49:49.434Z,99896.03
2022-09-27T06:50:53.458Z,99895.74
2022-09-27T06:51:56.723Z,99897.00
2022-09-27T06:52:58.982Z,99898.95
2022-09-27T06:54:00.754Z,99900.02
2022-09-27T06:55:04.041Z,99901.21
2022-09-27T06:56:07.400Z,99904.90
2022-09-27T06:57:46.548Z,99905.11
2022-09-27T06:59:06.757Z,99907.66
2022-09-27T07:00:23.039Z,99912.55
2022-09-27T07:01:44.931Z,99910.04
2022-09-27T07:02:57.863Z,99910.40
2022-09-27T07:04:19.738Z,99907.69
2022-09-27T07:05:42.911Z,99909.08
2022-09-27T07:07:01.423Z,99909.34
2022-09-27T07:08:14.098Z,99910.30
2022-09-27T07:09:17.253Z,99910.17
2022-09-27T07:10:19.307Z,99907.52
2022-09-27T07:11:22.734Z,99908.80
2022-09-27T07:12:24.409Z,99908.49
2022-09-27T07:13:33.647Z,99907.23
2022-09-27T07:14:35.873Z,99901.67
2022-09-27T07:15:41.035Z,99904.79
2022-09-27T07:16:46.735Z,99906.07
2022-09-27T07:17:59.086Z,99906.58
2022-09-27T07:19:04.902Z,99903.11
2022-09-27T07:20:07.065Z,99907.07
2022-09-27T07:21:11.888Z,99906.75
2022-09-27T07:22:13.759Z,99909.33
2022-09-27T07:23:18.128Z,99913.45
2022-09-27T07:24:22.156Z,99913.63
2022-09-27T07:25:25.391Z,99914.27
2022-09-27T07:26:27.108Z,99914.30
2022-09-27T07:27:29.154Z,99915.31
2022-09-27T07:28:31.324Z,99914.41
2022-09-27T07:29:33.651Z,99919.67
2022-09-27T07:30:36.579Z,99917.48
2022-09-27T07:31:38.533Z,99918.08
2022-09-27T07:32:41.464Z,99915.97
2022-09-27T07:33:44.621Z,99916.99
2022-09-27T07:34:46.541Z,99918.92
2022-09-27T07:35:48.393Z,99919.18
2022-09-27T07:36:50.071Z,99919.92
2022-09-27T07:37:51.808Z,99912.09
2022-09-27T07:38:53.508Z,99911.81
2022-09-27T07:39:56.607Z,99910.85
2022-09-27T07:41:05.142Z,99906.90
2022-09-27T07:42:06.841Z,99903.46
2022-09-27T07:43:11.677Z,99902.08
2022-09-27T07:44:15.630Z,99906.11
2022-09-27T07:45:36.273Z,99908.40
2022-09-27T07:46:37.969Z,99906.86
2022-09-27T07:47:52.348Z,99910.60
2022-09-27T07:48:58.131Z,99912.50
2022-09-27T07:50:10.819Z,99914.33
2022-09-27T07:51:25.313Z,99911.94
2022-09-27T07:52:44.293Z,99911.71
2022-09-27T07:54:08.604Z,99910.34
2022-09-27T07:55:23.811Z,99911.30
2022-09-27T07:56:33.415Z,99912.00
2022-09-27T07:57:35.728Z,99915.30
2022-09-27T07:58:37.818Z,99914.98
2022-09-27T07:59:41.988Z,99911.02
2022-09-27T08:00:46.190Z,99914.80
2022-09-27T08:01:48.351Z,99912.38
2022-09-27T08:02:50.200Z,99908.59
2022-09-27T08:03:52.467Z,99910.39
2022-09-27T08:04:54.534Z,99909.46
2022-09-27T08:06:02.594Z,99913.41
2022-09-27T08:07:04.534Z,99917.36
2022-09-27T08:08:06.486Z,99917.77
2022-09-27T08:09:09.280Z,99920.10
2022-09-27T08:10:12.136Z,99915.52
2022-09-27T08:11:16.544Z,99920.67
2022-09-27T08:12:20.917Z,99918.20
2022-09-27T08:13:22.704Z,99917.76
2022-09-27T08:14:26.774Z,99918.61
2022-09-27T08:15:31.278Z,99915.13
2022-09-27T08:16:33.845Z,99913.42
2022-09-27T08:17:54.372Z,99912.91
2022-09-27T08:19:22.373Z,99915.65
2022-09-27T08:20:37.677Z,99914.39
2022-09-27T08:21:59.082Z,99912.62
2022-09-27T08:23:09.720Z,99911.90
2022-09-27T08:24:16.121Z,99908.05
2022-09-27T08:25:37.762Z,99907.59
2022-09-27T08:26:46.061Z,99908.34
2022-09-27T08:28:00.892Z,99906.23
2022-09-27T08:29:09.798Z,99908.17
2022-09-27T08:30:16.901Z,99912.02
2022-09-27T08:31:20.014Z,99911.48
2022-09-27T08:32:23.495Z,99912.21
2022-09-27T08:33:31.968Z,99910.88
2022-09-27T08:34:34.591Z,99911.03
2022-09-27T08:35:36.449Z,99912.52
2022-09-27T08:36:38.265Z,99908.73
2022-09-27T08:37:40.341Z,99907.42
2022-09-27T08:38:42.441Z,99909.34
2022-09-27T08:39:47.780Z,99908.84
2022-09-27T08:41:08.467Z,99910.29
2022-09-27T08:42:25.153Z,99915.20
2022-09-27T08:43:46.513Z,99909.70
2022-09-27T08:45:04.164Z,99914.87
2022-09-27T08:46:18.803Z,99911.10
2022-09-27T08:47:28.978Z,99909.99
2022-09-27T08:48:35.697Z,99904.67
2022-09-27T08:49:42.807Z,99908.16
2022-09-27T08:50:47.704Z,99903.73
2022-09-27T08:51:53.613Z,99902.98
2022-09-27T08:53:00.679Z,99900.39
2022-09-27T08:54:11.134Z,99903.19
2022-09-27T08:55:36.708Z,99900.02
2022-09-27T08:56:40.799Z,99896.59
2022-09-27T08:57:43.529Z,99894.70
2022-09-27T08:58:54.978Z,99898.48
2022-09-27T09:00:11.179Z,99892.63
2022-09-27T09:01:16.341Z,99898.38
2022-09-27T09:02:41.055Z,99895.75
2022-09-27T09:03:59.259Z,99891.91
2022-09-27T09:05:23.213Z,99892.17
2022-09-27T09:06:29.320Z,99894.25
2022-09-27T09:07:47.390Z,99891.90
2022-09-27T09:09:01.119Z,99891.06
2022-09-27T09:10:50.786Z,99895.77
2022-09-27T09:12:29.754Z,99888.10
2022-09-27T09:14:02.525Z,99887.95
2022-09-27T09:15:53.498Z,99891.80
2022-09-27T09:17:12.446Z,99891.05
2022-09-27T09:19:07.181Z,99890.39
2022-09-27T09:20:31.481Z,99885.56
2022-09-27T09:21:59.237Z,99887.71
2022-09-27T09:23:23.128Z,99882.73
2022-09-27T09:24:36.693Z,99883.46
2022-09-27T09:25:47.839Z,99882.16
2022-09-27T09:27:13.481Z,99881.93
2022-09-27T09:28:24.350Z,99880.17
2022-09-27T09:29:52.597Z,99882.67
2022-09-27T09:31:14.802Z,99878.19
2022-09-27T09:32:35.777Z,99876.63
2022-09-27T09:33:43.652Z,99877.05
2022-09-27T09:34:57.681Z,99873.33
2022-09-27T09:36:13.245Z,99873.41
2022-09-27T09:37:28.006Z,99877.42
2022-09-27T09:38:48.484Z,99877.81
2022-09-27T09:39:58.963Z,99873.40
2022-09-27T09:41:18.661Z,99875.67
2022-09-27T09:42:32.454Z,99872.73
2022-09-27T09:43:47.818Z,99874.52
2022-09-27T09:45:12.686Z,99870.66
2022-09-27T09:46:44.784Z,99869.55
2022-09-27T09:48:14.659Z,99866.92
2022-09-27T09:49:23.223Z,99864.61
2022-09-27T09:50:36.370Z,99867.95
2022-09-27T09:51:49.475Z,99871.08
2022-09-27T09:52:58.742Z,99863.85
2022-09-27T09:54:23.994Z,99864.16
2022-09-27T09:55:30.918Z,99861.64
2022-09-27T09:56:47.055Z,99857.65
2022-09-27T09:58:07.672Z,99860.77
2022-09-27T09:59:29.771Z,99854.01
2022-09-27T10:00:32.493Z,99855.23
2022-09-27T10:01:41.174Z,99851.05
2022-09-27T10:02:45.235Z,99851.61
2022-09-27T10:03:50.156Z,99852.03
2022-09-27T10:04:52.026Z,99853.02
2022-09-27T10:05:53.670Z,99850.77
2022-09-27T10:06:58.817Z,99851.14
2022-09-27T10:08:04.903Z,99849.61
2022-09-27T10:09:11.445Z,99853.11
2022-09-27T10:10:33.656Z,99854.98
2022-09-27T10:11:44.317Z,99856.57
2022-09-27T10:12:50.847Z,99854.58
2022-09-27T10:13:55.399Z,99852.40
2022-09-27T10:15:00.789Z,99852.14
2022-09-27T10:16:10.517Z,99851.67
2022-09-27T10:17:17.607Z,99855.31
2022-09-27T10:18:21.377Z,99852.96
2022-09-27T10:19:29.821Z,99850.95
2022-09-27T10:20:50.678Z,99846.94
2022-09-27T10:21:53.241Z,99848.99
2022-09-27T10:23:00.488Z,99844.34
2022-09-27T10:24:19.633Z,99846.49
2022-09-27T10:25:59.778Z,99847.10
2022-09-27T10:27:13.393Z,99845.08
2022-09-27T10:28:32.115Z,99841.23
2022-09-27T10:29:37.995Z,99846.77
2022-09-27T10:30:55.708Z,99843.53
2022-09-27T10:32:00.968Z,99842.45
2022-09-27T10:33:18.303Z,99843.65
2022-09-27T10:34:37.586Z,99843.79
2022-09-27T10:35:44.489Z,99850.06
2022-09-27T10:37:18.113Z,99848.41
2022-09-27T10:38:52.563Z,99848.65
2022-09-27T10:39:59.765Z,99848.98
2022-09-27T10:41:31.359Z,99846.94
2022-09-27T10:42:37.969Z,99844.66
2022-09-27T10:43:41.938Z,99843.20
2022-09-27T10:45:21.794Z,99839.39
2022-09-27T10:46:33.914Z,99836.50
2022-09-27T10:47:51.812Z,99837.38
2022-09-27T10:49:21.313Z,99836.51
2022-09-27T10:50:49.190Z,99836.02
2022-09-27T10:52:01.914Z,99831.52
2022-09-27T10:53:11.686Z,99835.35
2022-09-27T10:54:27.033Z,99832.29
2022-09-27T10:55:33.739Z,99829.29
2022-09-27T10:56:35.844Z,99827.30
2022-09-27T10:57:39.756Z,99826.05
2022-09-27T10:58:45.577Z,99827.67
2022-09-27T10:59:54.291Z,99827.84
2022-09-27T11:01:02.819Z,99826.33
2022-09-27T11:02:20.227Z,99824.85
2022-09-27T11:03:32.172Z,99816.98
2022-09-27T11:04:37.144Z,99821.05
2022-09-27T11:05:40.184Z,99821.11
2022-09-27T11:06:43.734Z,99819.43
2022-09-27T11:07:59.365Z,99819.26
2022-09-27T11:09:18.282Z,99820.71
2022-09-27T11:10:24.600Z,99824.03
2022-09-27T11:11:27.723Z,99821.50
2022-09-27T11:12:31.390Z,99823.10
2022-09-27T11:13:34.976Z,99821.02
2022-09-27T11:14:40.689Z,99821.90
2022-09-27T11:15:47.983Z,99823.77
2022-09-27T11:17:14.309Z,99825.39
2022-09-27T11:18:26.784Z,99822.06
2022-09-27T11:20:09.745Z,99823.98
2022-09-27T11:21:33.339Z,99825.14
2022-09-27T11:22:56.267Z,99820.88
2022-09-27T11:24:25.717Z,99820.65
2022-09-27T11:25:45.774Z,99819.70
2022-09-27T11:26:53.843Z,99822.29
2022-09-27T11:27:55.342Z,99817.54
2022-09-27T11:29:15.485Z,99818.66
2022-09-27T11:31:11.542Z,99821.60
2022-09-27T11:32:25.047Z,99817.33
2022-09-27T11:33:57.022Z,99816.16
2022-09-27T11:35:16.344Z,99812.42
2022-09-27T11:36:45.498Z,99810.23
2022-09-27T11:38:21.114Z,99811.05
2022-09-27T11:39:52.941Z,99807.11
2022-09-27T11:41:02.418Z,99806.58
2022-09-27T11:42:16.273Z,99806.43
2022-09-27T11:43:36.150Z,99805.39
2022-09-27T11:45:31.994Z,99805.98
2022-09-27T11:46:38.871Z,99803.48
2022-09-27T11:47:53.549Z,99803.23
2022-09-27T11:49:45.694Z,99802.44
2022-09-27T11:51:04.475Z,99797.67
2022-09-27T11:52:28.460Z,99798.42
2022-09-27T11:53:57.695Z,99798.23
2022-09-27T11:55:15.120Z,99797.97
2022-09-27T11:56:41.737Z,99798.23
2022-09-27T11:58:11.002Z,99797.98
2022-09-27T11:59:53.110Z,99793.52
2022-09-27T12:01:20.120Z,99794.29
2022-09-27T12:02:53.676Z,99793.39
2022-09-27T12:04:33.184Z,99792.91
2022-09-27T12:06:07.198Z,99794.91
2022-09-27T12:07:49.458Z,99793.45
2022-09-27T12:09:04.714Z,99789.92
2022-09-27T12:10:16.493Z,99792.30
2022-09-27T12:11:25.962Z,99788.30
2022-09-27T12:12:33.777Z,99788.58
2022-09-27T12:13:48.861Z,99790.41
2022-09-27T12:15:02.955Z,99785.09
2022-09-27T12:16:12.860Z,99788.33
2022-09-27T12:17:26.988Z,99782.91
2022-09-27T12:18:34.662Z,99784.39
2022-09-27T12:19:48.664Z,99784.70
2022-09-27T12:21:05.614Z,99784.59
2022-09-27T12:22:13.446Z,99782.09
2022-09-27T12:23:23.770Z,99777.97
2022-09-27T12:24:32.490Z,99775.92
2022-09-27T12:25:50.934Z,99779.73
2022-09-27T12:27:08.394Z,99777.27
2022-09-27T12:28:19.426Z,99776.06
2022-09-27T12:29:27.241Z,99776.41
2022-09-27T12:30:31.931Z,99775.33
2022-09-27T12:31:58.350Z,99775.48
2022-09-27T12:33:09.912Z,99772.15
2022-09-27T12:34:51.205Z,99771.56
2022-09-27T12:35:55.310Z,99774.44
2022-09-27T12:37:00.444Z,99769.70
2022-09-27T12:38:14.080Z,99772.74
2022-09-27T12:39:23.428Z,99771.08
2022-09-27T12:40:43.186Z,99772.03
2022-09-27T12:42:01.701Z,99766.28
2022-09-27T12:43:21.150Z,99764.59
2022-09-27T12:44:40.702Z,99767.64
2022-09-27T12:45:56.133Z,99763.48
2022-09-27T12:47:04.147Z,99763.31
2022-09-27T12:48:26.898Z,99758.64
2022-09-27T12:49:47.504Z,99761.34
2022-09-27T12:50:55.223Z,99760.61
2022-09-27T12:52:09.141Z,99766.33
2022-09-27T12:53:22.984Z,99764.27
2022-09-27T12:54:51.508Z,99766.63
2022-09-27T12:56:16.582Z,99763.14
2022-09-27T12:57:37.425Z,99764.98
2022-09-27T12:58:47.970Z,99759.17
2022-09-27T13:00:14.321Z,99762.92
2022-09-27T13:01:27.879Z,99762.34
2022-09-27T13:03:14.153Z,99760.36
2022-09-27T13:04:23.194Z,99761.94
2022-09-27T13:05:52.079Z,99760.35
2022-09-27T13:07:21.165Z,99761.02
2022-09-27T13:08:58.458Z,99758.15
2022-09-27T13:10:41.039Z,99758.80
2022-09-27T13:12:04.494Z,99753.80
2022-09-27T13:13:12.617Z,99750.67
2022-09-27T13:14:24.352Z,99747.70
2022-09-27T13:15:32.999Z,99747.17
2022-09-27T13:16:46.139Z,99746.36
2022-09-27T13:17:50.904Z,99745.51
2022-09-27T13:19:02.978Z,99740.91
2022-09-27T13:20:23.074Z,99741.44
2022-09-27T13:21:48.904Z,99740.92
2022-09-27T13:23:19.548Z,99736.94
2022-09-27T13:24:29.971Z,99736.07
2022-09-27T13:25:55.129Z,99735.34
2022-09-27T13:27:02.570Z,99736.42
2022-09-27T13:28:33.441Z,99734.00
2022-09-27T13:29:35.410Z,99735.36
2022-09-27T13:30:40.470Z,99734.19
2022-09-27T13:31:57.320Z,99735.33
2022-09-27T13:33:09.070Z,99733.04
2022-09-27T13:34:49.929Z,99734.48
2022-09-27T13:36:20.691Z,99731.64
2022-09-27T13:38:06.468Z,99731.13
2022-09-27T13:39:11.068Z,99728.34
2022-09-27T13:40:36.853Z,99724.36
2022-09-27T13:42:19.091Z,99720.64
2022-09-27T13:43:48.233Z,99725.48
2022-09-27T13:45:27.524Z,99724.33
2022-09-27T13:46:32.378Z,99722.46
2022-09-27T13:47:43.667Z,99720.61
2022-09-27T13:49:20.252Z,99717.53
2022-09-27T13:50:49.656Z,99718.75
2022-09-27T13:52:02.203Z,99719.23
2022-09-27T13:53:13.523Z,99714.96
2022-09-27T13:54:33.276Z,99713.79
2022-09-27T13:55:45.107Z,99713.58
2022-09-27T13:56:53.435Z,99715.45
2022-09-27T13:58:12.716Z,99712.58
2022-09-27T13:59:18.125Z,99711.86
2022-09-27T14:00:26.760Z,99714.83
2022-09-27T14:01:35.218Z,99716.95
2022-09-27T14:03:04.820Z,99713.52
2022-09-27T14:04:17.785Z,99716.15
2022-09-27T14:05:26.674Z,99714.64
2022-09-27T14:06:34.653Z,99712.31
2022-09-27T14:07:41.996Z,99714.38
2022-09-27T14:08:49.872Z,99709.85
2022-09-27T14:09:54.318Z,99710.12